Time;durP1;ratioP1;P1;durP2;ratioP2;P2;SDS_P1;SDS_P2;PMS_P1;PMS_P2;Temp;Humidity;BMP_temperature;BMP_pressure;BME280_temperature;BME280_humidity;BME280_pressure;Samples;Min_cycle;Max_cycle;Signal;HPM_P1;HPM_P2
2022/11/18 00:01:22;;;;;;;49.13;30.33;;;;;;;9.62;100.00;99012.63;5098430;28;20035;-66
2022/11/18 00:03:48;;;;;;;49.22;29.38;;;;;;;9.63;100.00;99019.66;5095651;28;20259;-65
2022/11/18 00:06:17;;;;;;;53.40;29.33;;;;;;;9.62;100.00;99014.47;5097619;28;20035;-71
2022/11/18 00:08:43;;;;;;;46.85;27.85;;;;;;;9.55;100.00;99008.94;5103062;28;20054;-71
2022/11/18 00:11:12;;;;;;;47.20;29.35;;;;;;;9.59;100.00;99017.47;5095836;28;20073;-71
2022/11/18 00:16:22;;;;;;;50.47;28.95;;;;;;;9.60;100.00;99016.44;5094381;28;20084;-70
2022/11/18 00:18:48;;;;;;;49.30;29.20;;;;;;;9.59;100.00;99018.31;5098486;28;20040;-71
2022/11/18 00:21:13;;;;;;;48.05;28.05;;;;;;;9.59;100.00;99026.34;5090227;28;20027;-70
2022/11/18 00:23:39;;;;;;;48.42;29.75;;;;;;;9.57;100.00;99017.63;5098400;28;20022;-71
2022/11/18 00:26:07;;;;;;;48.35;29.98;;;;;;;9.57;100.00;99017.63;5096529;28;20069;-71
2022/11/18 00:28:34;;;;;;;44.63;28.35;;;;;;;9.55;100.00;99008.94;5103531;28;20090;-71
2022/11/18 00:31:04;;;;;;;50.53;30.52;;;;;;;9.57;100.00;99006.09;5095518;28;20035;-71
2022/11/18 00:33:30;;;;;;;50.38;28.10;;;;;;;9.54;100.00;99007.22;5099884;28;20122;-70
2022/11/18 00:35:56;;;;;;;50.20;29.17;;;;;;;9.55;100.00;98997.38;5094452;28;20098;-71
2022/11/18 00:38:22;;;;;;;49.50;29.80;;;;;;;9.54;100.00;98999.22;5094318;28;20039;-71
2022/11/18 00:40:48;;;;;;;48.30;29.83;;;;;;;9.54;100.00;99003.75;5100661;28;20032;-70
2022/11/18 00:43:13;;;;;;;51.05;29.80;;;;;;;9.54;100.00;98999.22;5095091;28;20028;-69
2022/11/18 00:45:38;;;;;;;57.13;30.63;;;;;;;9.53;100.00;99000.22;5088405;28;20031;-72
2022/11/18 00:48:04;;;;;;;46.78;28.73;;;;;;;9.54;100.00;99003.75;5091056;28;20495;-70
2022/11/18 00:50:30;;;;;;;53.40;30.38;;;;;;;9.53;100.00;99007.41;5105826;28;20474;-72
2022/11/18 00:52:55;;;;;;;52.42;29.00;;;;;;;9.52;100.00;99001.22;5091308;28;20027;-72
2022/11/18 00:55:20;;;;;;;54.40;30.40;;;;;;;9.52;100.00;99009.25;5105788;28;20023;-72
2022/11/18 00:57:46;;;;;;;49.95;29.05;;;;;;;9.52;100.00;99009.25;5095750;28;20039;-72
2022/11/18 01:00:12;;;;;;;52.75;30.55;;;;;;;9.50;100.00;99011.22;5093711;28;20040;-71
2022/11/18 01:02:37;;;;;;;50.28;30.20;;;;;;;9.53;100.00;99008.25;5097947;28;20031;-72
2022/11/18 01:05:03;;;;;;;49.05;29.35;;;;;;;9.45;100.00;99000.19;5094683;28;20118;-64
2022/11/18 01:07:29;;;;;;;53.95;30.95;;;;;;;9.48;100.00;99002.50;5098960;28;20424;-65
2022/11/18 01:09:56;;;;;;;51.05;29.73;;;;;;;9.48;100.00;98999.03;5090483;28;20024;-67
2022/11/18 01:15:06;;;;;;;51.95;29.42;;;;;;;9.48;100.00;99005.19;5092566;28;20100;-70
2022/11/18 01:17:31;;;;;;;50.50;29.52;;;;;;;9.47;100.00;99000.84;5096852;28;20024;-71
2022/11/18 01:19:57;;;;;;;51.22;29.92;;;;;;;9.40;100.00;98994.47;5090423;28;20027;-71
2022/11/18 01:22:23;;;;;;;53.65;29.73;;;;;;;9.42;100.00;99000.50;5092510;28;20125;-72
2022/11/18 01:24:48;;;;;;;44.80;28.25;;;;;;;9.45;100.00;99000.19;5100333;28;20467;-72
2022/11/18 01:27:14;;;;;;;53.33;29.45;;;;;;;9.41;100.00;98998.00;5094492;28;20487;-71
2022/11/18 01:29:39;;;;;;;52.70;29.38;;;;;;;9.41;100.00;98996.13;5095967;28;20024;-69
2022/11/18 01:32:05;;;;;;;45.53;27.40;;;;;;;9.34;100.00;98987.06;5097638;28;20024;-65
2022/11/18 01:34:30;;;;;;;48.58;28.30;;;;;;;9.42;100.00;99002.34;5097071;28;20046;-65
2022/11/18 01:36:57;;;;;;;46.13;27.60;;;;;;;9.41;100.00;99008.69;5096933;28;20060;-65
2022/11/18 01:39:23;;;;;;;46.72;27.77;;;;;;;9.26;100.00;98998.56;5091757;28;20424;-65
2022/11/18 01:41:48;;;;;;;42.33;27.23;;;;;;;9.37;100.00;99026.03;5105639;28;20039;-64
2022/11/18 01:44:51;;;;;;;44.08;28.55;;;;;;;9.35;100.00;99023.53;5095393;28;20040;-65
2022/11/18 01:47:17;;;;;;;45.70;26.75;;;;;;;9.28;100.00;99014.44;5104185;28;20442;-64
2022/11/18 01:49:43;;;;;;;43.15;26.38;;;;;;;9.34;100.00;99011.16;5100968;28;20040;-66
2022/11/18 01:52:10;;;;;;;39.45;25.02;;;;;;;9.32;100.00;99010.44;5095656;28;20076;-65
2022/11/18 01:54:40;;;;;;;38.97;26.40;;;;;;;9.31;100.00;99013.31;5093743;28;20520;-70
2022/11/18 01:57:12;;;;;;;39.47;24.77;;;;;;;9.23;100.00;99006.91;5099180;28;20092;-65
2022/11/18 01:59:41;;;;;;;44.40;25.92;;;;;;;9.34;100.00;99029.88;5093882;28;20438;-65
2022/11/18 02:02:10;;;;;;;42.28;26.05;;;;;;;9.33;100.00;99022.84;5096945;28;20027;-65
2022/11/18 02:04:39;;;;;;;38.70;24.92;;;;;;;9.34;100.00;99003.13;5091033;28;20032;-65
2022/11/18 02:07:06;;;;;;;41.67;26.33;;;;;;;9.27;100.00;98994.91;5094229;28;20102;-65
2022/11/18 02:09:31;;;;;;;40.72;26.25;;;;;;;9.32;100.00;98990.91;5098413;28;20027;-65
2022/11/18 02:11:57;;;;;;;40.75;26.17;;;;;;;9.22;100.00;98975.81;5096928;28;20023;-71
2022/11/18 02:14:29;;;;;;;38.88;26.05;;;;;;;9.27;100.00;98984.22;5093243;28;20498;-70
2022/11/18 02:17:13;;;;;;;38.13;24.58;;;;;;;9.31;100.00;98971.34;5104539;28;20030;-72
2022/11/18 02:20:16;;;;;;;39.33;24.45;;;;;;;9.33;100.00;98961.31;5107395;28;20497;-72
2022/11/18 02:23:10;;;;;;;36.15;23.50;;;;;;;9.28;100.00;98947.56;5087070;28;20529;-70
2022/11/18 02:26:14;;;;;;;40.93;25.43;;;;;;;9.25;100.00;98934.50;5100063;28;20030;-71
2022/11/18 02:29:09;;;;;;;35.65;24.08;;;;;;;9.25;100.00;98951.41;5103147;28;20714;-72
2022/11/18 02:31:58;;;;;;;35.33;23.85;;;;;;;9.19;100.00;98932.47;5099318;28;20027;-71
2022/11/18 02:35:07;;;;;;;34.22;22.30;;;;;;;9.24;100.00;98928.34;5101038;28;20034;-71
2022/11/18 02:37:42;;;;;;;37.97;23.98;;;;;;;9.24;100.00;98911.44;5067641;28;20492;-72
2022/11/18 02:40:26;;;;;;;37.45;23.83;;;;;;;9.21;100.00;98906.41;5097379;28;20638;-71
2022/11/18 02:43:00;;;;;;;35.08;24.45;;;;;;;9.20;100.00;98897.53;5103356;28;20188;-71
2022/11/18 02:45:28;;;;;;;34.22;23.70;;;;;;;9.15;100.00;98872.28;5097465;28;20047;-65
2022/11/18 02:47:57;;;;;;;37.03;24.20;;;;;;;9.18;100.00;98864.78;5103897;28;20512;-70
2022/11/18 02:50:26;;;;;;;34.25;23.35;;;;;;;9.17;100.00;98867.63;5097486;28;20660;-71
2022/11/18 02:52:56;;;;;;;37.15;24.63;;;;;;;9.14;100.00;98867.94;5092069;28;20032;-71
2022/11/18 02:55:24;;;;;;;35.90;24.48;;;;;;;9.11;100.00;98855.75;5103459;28;20040;-70
2022/11/18 02:57:51;;;;;;;39.35;24.88;;;;;;;9.12;100.00;98859.22;5095263;28;20043;-71
2022/11/18 03:00:17;;;;;;;36.03;23.27;;;;;;;9.10;100.00;98842.53;5100313;28;20086;-71
2022/11/18 03:02:45;;;;;;;38.83;24.98;;;;;;;9.10;100.00;98853.22;5097406;28;20103;-70
2022/11/18 03:05:18;;;;;;;37.70;24.20;;;;;;;9.10;100.00;98850.56;5098168;28;20106;-71
2022/11/18 03:07:51;;;;;;;34.60;22.90;;;;;;;9.12;100.00;98865.44;5102531;28;20031;-70
2022/11/18 03:10:21;;;;;;;33.13;22.35;;;;;;;9.09;100.00;98875.59;5095865;28;20042;-72
2022/11/18 03:12:56;;;;;;;33.95;22.90;;;;;;;9.09;100.00;98892.50;5098013;28;20491;-72
2022/11/18 03:15:47;;;;;;;39.20;24.52;;;;;;;9.05;100.00;98907.19;5098160;28;20437;-71
2022/11/18 03:18:36;;;;;;;34.20;23.02;;;;;;;8.97;100.00;98900.97;5098985;28;20114;-72
2022/11/18 03:21:10;;;;;;;34.92;22.55;;;;;;;8.90;100.00;98907.94;5096041;28;20553;-71
2022/11/18 03:23:53;;;;;;;34.65;22.65;;;;;;;8.88;100.00;98917.94;5095252;28;20031;-72
2022/11/18 03:26:30;;;;;;;41.15;24.27;;;;;;;8.89;100.00;98919.63;5100690;27;20437;-72
2022/11/18 03:28:59;;;;;;;41.85;25.63;;;;;;;8.78;100.00;98922.56;5096744;28;20499;-71
2022/11/18 03:31:32;;;;;;;41.35;26.20;;;;;;;8.87;100.00;98925.13;5100665;28;20679;-71
2022/11/18 03:34:04;;;;;;;36.23;24.33;;;;;;;8.86;100.00;98927.94;5096612;28;20028;-72
2022/11/18 03:36:35;;;;;;;41.53;25.55;;;;;;;8.80;100.00;98917.88;5097861;28;20062;-72
2022/11/18 03:39:04;;;;;;;41.88;25.42;;;;;;;8.75;100.00;98910.38;5097604;28;20073;-72
2022/11/18 03:41:36;;;;;;;42.10;25.58;;;;;;;8.74;100.00;98914.00;5102761;28;20028;-71
2022/11/18 03:44:12;;;;;;;38.90;23.95;;;;;;;8.69;100.00;98905.66;5099039;28;20054;-72
2022/11/18 03:46:48;;;;;;;40.80;25.80;;;;;;;8.73;100.00;98919.50;5093704;28;20353;-70
2022/11/18 03:49:39;;;;;;;43.28;27.38;;;;;;;8.65;100.00;98901.59;5099694;28;20054;-71
2022/11/18 03:52:12;;;;;;;43.33;25.92;;;;;;;8.71;100.00;98897.47;5090240;28;20020;-70
2022/11/18 03:54:39;;;;;;;44.53;27.27;;;;;;;8.71;100.00;98889.47;5097195;28;20102;-69
2022/11/18 03:57:12;;;;;;;46.67;27.58;;;;;;;8.71;100.00;98878.75;5104224;28;20069;-70
2022/11/18 03:59:44;;;;;;;44.05;27.17;;;;;;;8.74;100.00;98892.63;5099694;28;20056;-70
2022/11/18 04:02:18;;;;;;;45.50;27.67;;;;;;;8.75;100.00;98888.97;5097057;28;20382;-70
2022/11/18 04:04:47;;;;;;;44.05;25.40;;;;;;;8.67;100.00;98872.88;5101819;28;20055;-70
2022/11/18 04:07:32;;;;;;;42.60;26.67;;;;;;;8.73;100.00;98882.94;5098965;28;20035;-71
2022/11/18 04:10:10;;;;;;;45.17;27.17;;;;;;;8.74;100.00;98870.44;5096990;28;20479;-69
2022/11/18 04:12:41;;;;;;;43.75;26.88;;;;;;;8.75;100.00;98872.94;5092170;28;20035;-70
2022/11/18 04:15:07;;;;;;;44.38;27.20;;;;;;;8.71;100.00;98866.22;5100322;28;20027;-71
2022/11/18 04:17:33;;;;;;;50.55;29.08;;;;;;;8.74;100.00;98881.13;5097585;28;20020;-71
2022/11/18 04:19:58;;;;;;;45.80;27.63;;;;;;;8.74;100.00;98881.94;5104995;28;20016;-71
2022/11/18 04:22:24;;;;;;;45.50;27.98;;;;;;;8.76;100.00;98879.09;5099728;28;20019;-71
2022/11/18 04:24:49;;;;;;;51.47;29.10;;;;;;;8.77;100.00;98884.31;5095417;28;20030;-71
2022/11/18 04:27:15;;;;;;;51.88;29.70;;;;;;;8.75;100.00;98877.44;5100041;28;20058;-72
2022/11/18 04:29:40;;;;;;;48.10;28.17;;;;;;;8.77;100.00;98876.28;5091441;28;20088;-72
2022/11/18 04:32:06;;;;;;;49.08;29.80;;;;;;;8.80;100.00;98875.13;5098418;28;20088;-71
2022/11/18 04:34:31;;;;;;;46.60;27.65;;;;;;;8.80;100.00;98853.72;5102623;28;20046;-71
2022/11/18 04:36:58;;;;;;;50.03;29.35;;;;;;;8.80;100.00;98843.88;5100069;28;20023;-71
2022/11/18 04:39:23;;;;;;;44.67;27.73;;;;;;;8.83;100.00;98853.41;5099060;28;20423;-72
2022/11/18 04:41:55;;;;;;;41.80;27.83;;;;;;;8.85;100.00;98875.50;5096989;28;20020;-72
2022/11/18 04:44:24;;;;;;;43.67;27.02;;;;;;;8.88;100.00;98883.19;5097434;28;20664;-71
2022/11/18 04:46:50;;;;;;;40.83;26.02;;;;;;;8.92;100.00;98895.25;5096639;28;20370;-71
2022/11/18 04:49:16;;;;;;;43.58;27.58;;;;;;;8.90;100.00;98897.25;5100747;28;20043;-70
2022/11/18 04:51:42;;;;;;;42.88;26.75;;;;;;;8.91;100.00;98905.09;5099493;28;20053;-70
2022/11/18 04:54:09;;;;;;;50.20;28.80;;;;;;;8.91;100.00;98905.09;5098288;28;20024;-70
2022/11/18 04:56:34;;;;;;;42.33;26.70;;;;;;;8.93;100.00;98908.44;5096746;28;20080;-71
2022/11/18 04:59:01;;;;;;;50.17;30.80;;;;;;;8.95;100.00;98906.47;5091474;28;20051;-71
2022/11/18 05:01:28;;;;;;;58.67;33.00;;;;;;;8.93;100.00;98908.44;5102316;28;20023;-65
2022/11/18 05:03:54;;;;;;;67.15;36.50;;;;;;;8.95;100.00;98909.16;5094167;28;20080;-66
2022/11/18 05:06:20;;;;;;;67.20;35.53;;;;;;;8.98;100.00;98905.31;5098299;28;20024;-66
2022/11/18 05:08:45;;;;;;;66.30;35.92;;;;;;;8.99;100.00;98896.28;5094461;28;20031;-65
2022/11/18 05:13:55;;;;;;;59.85;32.75;;;;;;;8.93;100.00;98880.88;5098879;28;20501;-65
2022/11/18 05:16:20;;;;;;;56.92;32.13;;;;;;;9.00;100.00;98892.63;5096075;28;20043;-65
2022/11/18 05:18:46;;;;;;;50.25;30.40;;;;;;;8.97;100.00;98884.94;5097888;28;20020;-66
2022/11/18 05:21:11;;;;;;;47.55;30.80;;;;;;;8.91;100.00;98873.00;5090457;28;20027;-65
2022/11/18 05:23:37;;;;;;;50.00;29.15;;;;;;;9.00;100.00;98881.94;5097628;28;20052;-65
2022/11/18 05:26:06;;;;;;;50.55;30.17;;;;;;;8.94;100.00;98875.38;5093055;28;20112;-66
2022/11/18 05:28:32;;;;;;;49.72;29.85;;;;;;;9.01;100.00;98884.44;5100373;28;20035;-66
2022/11/18 05:30:57;;;;;;;43.70;27.00;;;;;;;9.01;100.00;98887.13;5102826;28;20015;-66
2022/11/18 05:33:23;;;;;;;47.38;30.90;;;;;;;9.03;100.00;98890.47;5100599;28;20052;-66
2022/11/18 05:35:48;;;;;;;46.50;29.15;;;;;;;9.03;100.00;98895.81;5094252;28;20114;-66
2022/11/18 05:38:14;;;;;;;44.70;27.92;;;;;;;9.01;100.00;98891.63;5095601;28;20032;-66
2022/11/18 05:40:41;;;;;;;51.20;28.00;;;;;;;9.05;100.00;98899.16;5099086;28;20027;-66
2022/11/18 05:43:11;;;;;;;42.67;25.75;;;;;;;9.05;100.00;98898.31;5096492;28;20028;-66
2022/11/18 05:45:42;;;;;;;39.03;25.00;;;;;;;8.99;100.00;98883.75;5100163;28;20032;-65
2022/11/18 05:48:08;;;;;;;39.08;24.83;;;;;;;9.01;100.00;98889.78;5093467;28;20499;-65
2022/11/18 05:50:36;;;;;;;45.05;27.48;;;;;;;9.01;100.00;98891.63;5098565;28;20047;-65
2022/11/18 05:53:03;;;;;;;43.40;26.40;;;;;;;9.00;100.00;98885.44;5102037;28;20032;-67
2022/11/18 05:55:37;;;;;;;42.17;25.90;;;;;;;8.99;100.00;98885.59;5093839;28;20501;-65
2022/11/18 05:58:02;;;;;;;41.03;24.48;;;;;;;8.99;100.00;98896.28;5095918;28;20463;-65
2022/11/18 06:00:29;;;;;;;41.80;24.35;;;;;;;8.93;100.00;98881.72;5091582;28;20046;-65
2022/11/18 06:02:56;;;;;;;34.25;21.52;;;;;;;9.00;100.00;98887.28;5099554;28;20417;-65
2022/11/18 06:05:23;;;;;;;34.67;22.27;;;;;;;8.99;100.00;98877.56;5091205;28;20727;-65
2022/11/18 06:07:49;;;;;;;35.22;21.80;;;;;;;9.01;100.00;98872.91;5089783;28;20059;-65
2022/11/18 06:10:25;;;;;;;33.15;21.00;;;;;;;8.88;100.00;98859.13;5092053;28;20048;-65
2022/11/18 06:12:56;;;;;;;36.17;21.83;;;;;;;9.00;100.00;98874.72;5087802;28;20038;-67
2022/11/18 06:15:25;;;;;;;40.50;21.63;;;;;;;8.99;100.00;98869.53;5097595;28;20036;-66
2022/11/18 06:17:56;;;;;;;35.17;22.25;;;;;;;8.88;100.00;98854.63;5097017;28;20051;-66
2022/11/18 06:20:22;;;;;;;32.13;21.05;;;;;;;8.94;100.00;98864.66;5103385;28;20088;-65
2022/11/18 06:22:52;;;;;;;34.78;20.90;;;;;;;8.91;100.00;98846.28;5105380;28;20027;-65
2022/11/18 06:25:18;;;;;;;36.67;23.00;;;;;;;8.97;100.00;98860.84;5105427;28;20043;-65
2022/11/18 06:27:45;;;;;;;37.00;22.88;;;;;;;8.88;100.00;98838.59;5098860;28;20032;-65
2022/11/18 06:30:11;;;;;;;41.20;25.90;;;;;;;8.97;100.00;98856.31;5096429;28;20460;-65
2022/11/18 06:32:36;;;;;;;40.88;25.40;;;;;;;8.96;100.00;98857.34;5097758;28;20027;-65
2022/11/18 06:35:02;;;;;;;45.63;28.85;;;;;;;8.99;100.00;98858.84;5095942;28;20020;-67
2022/11/18 06:37:27;;;;;;;42.10;26.77;;;;;;;8.94;100.00;98850.47;5105331;28;20081;-66
2022/11/18 06:39:53;;;;;;;39.63;24.23;;;;;;;9.00;100.00;98858.69;5100048;28;20028;-67
2022/11/18 06:45:03;;;;;;;41.42;23.23;;;;;;;8.93;100.00;98848.78;5101776;27;20046;-66
2022/11/18 06:47:29;;;;;;;42.55;24.38;;;;;;;9.01;100.00;98856.84;5100855;28;20483;-66
2022/11/18 06:49:54;;;;;;;37.35;23.23;;;;;;;9.07;100.00;98856.22;5096252;28;20048;-67
2022/11/18 06:52:21;;;;;;;39.33;23.55;;;;;;;9.04;100.00;98848.53;5099353;28;20044;-66
2022/11/18 06:54:47;;;;;;;48.15;25.40;;;;;;;9.08;100.00;98853.38;5096140;28;20476;-67
2022/11/18 06:57:12;;;;;;;41.67;23.77;;;;;;;9.07;100.00;98840.19;5101715;28;20032;-66
2022/11/18 06:59:37;;;;;;;38.45;23.40;;;;;;;9.18;100.00;98858.59;5095155;28;20365;-66
2022/11/18 07:02:03;;;;;;;44.13;25.45;;;;;;;9.18;100.00;98869.28;5096907;28;20101;-66
2022/11/18 07:04:28;;;;;;;37.15;23.13;;;;;;;9.21;100.00;98867.16;5097715;28;20049;-65
2022/11/18 07:06:53;;;;;;;38.63;23.50;;;;;;;9.14;100.00;98857.25;5092353;28;20023;-65
2022/11/18 07:09:19;;;;;;;44.05;24.30;;;;;;;9.26;100.00;98866.66;5089665;28;20024;-65
2022/11/18 07:11:44;;;;;;;40.72;23.67;;;;;;;9.23;100.00;98849.09;5103702;28;20058;-65
2022/11/18 07:14:12;;;;;;;35.25;22.40;;;;;;;9.31;100.00;98867.00;5099873;28;20028;-65
2022/11/18 07:16:37;;;;;;;38.20;22.48;;;;;;;9.32;100.00;98854.47;5095320;28;20023;-66
2022/11/18 07:19:09;;;;;;;37.85;22.60;;;;;;;9.35;100.00;98854.16;5099652;27;20562;-66
2022/11/18 07:21:34;;;;;;;40.88;24.33;;;;;;;9.37;100.00;98847.63;5098559;28;20575;-66
2022/11/18 07:23:59;;;;;;;46.17;25.38;;;;;;;9.38;100.00;98849.28;5104678;28;20015;-65
2022/11/18 07:26:25;;;;;;;51.13;27.23;;;;;;;9.34;100.00;98831.91;5091530;28;20060;-65
2022/11/18 07:28:52;;;;;;;45.58;25.55;;;;;;;9.44;100.00;98837.94;5105319;28;20032;-66
2022/11/18 07:31:19;;;;;;;49.00;27.35;;;;;;;9.44;100.00;98823.75;5098994;28;20534;-65
2022/11/18 07:33:46;;;;;;;47.78;26.98;;;;;;;9.46;100.00;98830.59;5109571;28;20027;-65
2022/11/18 07:36:14;;;;;;;49.08;27.38;;;;;;;9.48;100.00;98825.91;5101965;28;20035;-65
2022/11/18 07:38:40;;;;;;;51.28;28.77;;;;;;;9.44;100.00;98805.03;5101518;28;20027;-66
2022/11/18 07:41:08;;;;;;;56.50;31.08;;;;;;;9.43;100.00;98803.31;5104446;28;20039;-65
2022/11/18 07:43:35;;;;;;;59.70;31.00;;;;;;;9.51;100.00;98828.25;5099014;28;20065;-65
2022/11/18 07:46:19;;;;;;;59.00;31.60;;;;;;;9.48;100.00;98815.19;5109300;28;20069;-65
2022/11/18 07:48:49;;;;;;;63.75;33.20;;;;;;;9.54;100.00;98809.19;5104510;27;20052;-64
2022/11/18 07:51:17;;;;;;;57.08;32.55;;;;;;;9.53;100.00;98802.19;5104021;27;20131;-65
2022/11/18 07:53:43;;;;;;;52.97;29.25;;;;;;;9.54;100.00;98814.53;5114670;27;20565;-67
2022/11/18 07:56:09;;;;;;;55.78;30.73;;;;;;;9.51;100.00;98806.03;5106797;27;20031;-66
2022/11/18 07:58:36;;;;;;;52.70;28.17;;;;;;;9.56;100.00;98809.88;5100628;27;20050;-67
2022/11/18 08:01:17;;;;;;;55.08;28.65;;;;;;;9.56;100.00;98817.91;5101094;28;20032;-66
2022/11/18 08:03:43;;;;;;;53.03;27.08;;;;;;;9.52;100.00;98811.22;5106115;28;20027;-66
2022/11/18 08:06:11;;;;;;;50.25;26.05;;;;;;;9.60;100.00;98832.63;5091293;28;20127;-71
2022/11/18 08:08:37;;;;;;;46.75;25.88;;;;;;;9.60;100.00;98821.91;5102370;28;20118;-71
2022/11/18 08:11:05;;;;;;;48.25;25.50;;;;;;;9.60;100.00;98827.28;5097544;28;20500;-72
2022/11/18 08:13:31;;;;;;;51.83;26.33;;;;;;;9.62;100.00;98845.84;5102510;28;20027;-72
2022/11/18 08:15:57;;;;;;;48.40;26.10;;;;;;;9.64;100.00;98847.34;5103039;28;20024;-72
2022/11/18 08:18:23;;;;;;;51.13;28.13;;;;;;;9.60;100.00;98837.97;5097241;27;20020;-73
2022/11/18 08:20:49;;;;;;;52.30;28.23;;;;;;;9.59;100.00;98827.44;5103630;28;20537;-73
2022/11/18 08:23:15;;;;;;;44.20;23.63;;;;;;;9.66;100.00;98823.94;5089930;28;20031;-73
2022/11/18 08:25:42;;;;;;;43.80;25.10;;;;;;;9.65;100.00;98810.72;5094590;28;20032;-73
2022/11/18 08:28:09;;;;;;;38.85;22.40;;;;;;;9.67;100.00;98806.06;5097335;28;20072;-73
2022/11/18 08:30:35;;;;;;;44.15;24.17;;;;;;;9.67;100.00;98812.22;5099916;28;20369;-74
2022/11/18 08:33:00;;;;;;;39.47;22.00;;;;;;;9.59;100.00;98784.63;5105707;28;20077;-74
2022/11/18 08:35:27;;;;;;;35.50;20.88;;;;;;;9.70;100.00;98809.22;5094631;28;20023;-74
2022/11/18 08:37:53;;;;;;;36.83;20.75;;;;;;;9.68;100.00;98797.84;5098304;28;20517;-74
2022/11/18 08:40:18;;;;;;;31.77;18.83;;;;;;;9.67;100.00;98793.47;5103763;28;20088;-74
2022/11/18 08:42:44;;;;;;;32.92;18.67;;;;;;;9.72;100.00;98798.34;5097138;28;20024;-74
2022/11/18 08:45:09;;;;;;;30.10;18.40;;;;;;;9.72;100.00;98807.22;5096984;28;20107;-73
2022/11/18 08:47:36;;;;;;;32.13;20.05;;;;;;;9.75;100.00;98808.72;5098500;28;20097;-73
2022/11/18 08:50:06;;;;;;;36.28;20.85;;;;;;;9.74;100.00;98797.16;5101980;28;20047;-74
2022/11/18 08:52:31;;;;;;;31.77;18.95;;;;;;;9.78;100.00;98797.69;5098813;28;20061;-73
2022/11/18 08:54:57;;;;;;;32.28;18.48;;;;;;;9.79;100.00;98786.81;5106192;28;20081;-66
2022/11/18 08:57:23;;;;;;;32.92;18.27;;;;;;;9.80;100.00;98788.47;5092273;28;20452;-66
2022/11/18 08:59:48;;;;;;;31.30;17.77;;;;;;;9.83;100.00;98782.78;5095981;28;20110;-66
2022/11/18 09:02:21;;;;;;;28.23;16.55;;;;;;;9.83;100.00;98779.28;5088327;28;20070;-65
2022/11/18 09:04:49;;;;;;;26.55;15.57;;;;;;;9.77;100.00;98769.25;5094909;28;20106;-66
2022/11/18 09:07:15;;;;;;;24.05;14.90;;;;;;;9.87;100.00;98776.09;5099028;28;20076;-65
2022/11/18 09:09:41;;;;;;;25.63;15.63;;;;;;;9.90;100.00;98778.44;5105251;28;20532;-65
2022/11/18 09:12:08;;;;;;;23.83;14.75;;;;;;;9.94;100.00;98758.38;5094345;28;20032;-65
2022/11/18 09:14:34;;;;;;;24.17;14.82;;;;;;;9.87;100.00;98746.63;5094693;28;20074;-66
2022/11/18 09:16:59;;;;;;;23.30;13.93;;;;;;;9.85;100.00;98739.78;5094364;28;20027;-66
2022/11/18 09:19:25;;;;;;;21.13;13.50;;;;;;;9.88;100.00;98742.13;5097361;28;20527;-66
2022/11/18 09:21:50;;;;;;;19.40;13.20;;;;;;;9.99;100.00;98750.66;5097104;28;20079;-67
2022/11/18 09:24:16;;;;;;;24.67;14.60;;;;;;;10.01;100.00;98745.97;5090689;28;20110;-67
2022/11/18 09:26:41;;;;;;;24.77;14.68;;;;;;;9.97;100.00;98733.09;5086392;28;20100;-68
2022/11/18 09:29:07;;;;;;;28.45;15.45;;;;;;;9.99;100.00;98736.44;5094846;28;20028;-67
2022/11/18 09:31:33;;;;;;;23.88;14.07;;;;;;;9.92;100.00;98706.81;5107035;28;20085;-67
2022/11/18 09:33:59;;;;;;;26.83;16.08;;;;;;;10.04;100.00;98726.88;5095039;28;20027;-67
2022/11/18 09:36:25;;;;;;;24.80;15.27;;;;;;;10.01;100.00;98721.88;5096906;28;20106;-64
2022/11/18 09:38:52;;;;;;;23.17;14.07;;;;;;;10.04;100.00;98718.00;5091346;28;20475;-65
2022/11/18 09:41:43;;;;;;;24.92;14.73;;;;;;;10.12;100.00;98718.03;5094506;28;20024;-66
2022/11/18 09:44:39;;;;;;;27.83;15.20;;;;;;;10.13;100.00;98717.03;5091547;28;20029;-66
2022/11/18 09:47:23;;;;;;;26.73;15.20;;;;;;;10.15;100.00;98715.84;5108085;28;20035;-67
2022/11/18 09:49:49;;;;;;;25.25;15.15;;;;;;;10.15;100.00;98713.16;5096370;28;20464;-67
2022/11/18 09:52:25;;;;;;;22.50;14.75;;;;;;;10.19;100.00;98717.16;5103241;28;20115;-67
2022/11/18 09:54:51;;;;;;;20.27;13.52;;;;;;;10.23;100.00;98715.84;5093089;28;20019;-67
2022/11/18 09:57:24;;;;;;;20.30;13.70;;;;;;;10.23;100.00;98721.19;5096547;28;20065;-67
2022/11/18 09:59:50;;;;;;;19.52;13.48;;;;;;;10.19;100.00;98716.34;5099886;28;20119;-66
2022/11/18 10:02:36;;;;;;;20.33;14.15;;;;;;;10.23;100.00;98717.66;5100374;28;20462;-66
2022/11/18 10:05:22;;;;;;;23.10;14.20;;;;;;;10.04;100.00;98681.34;5097822;28;20035;-66
2022/11/18 10:08:06;;;;;;;24.48;15.32;;;;;;;10.24;100.00;98711.28;5106821;28;20046;-73
2022/11/18 10:11:09;;;;;;;24.65;14.75;;;;;;;10.26;100.00;98709.28;5097432;28;20036;-73
2022/11/18 10:14:04;;;;;;;23.38;15.05;;;;;;;10.25;100.00;98705.75;5095913;27;20024;-74
2022/11/18 10:16:32;;;;;;;;;;;;;;;10.22;100.00;98706.09;5098958;28;20032;-72
2022/11/18 10:19:17;;;;;;;25.25;15.52;;;;;;;10.26;100.00;98686.03;5090904;28;19916;-73
2022/11/18 10:21:51;;;;;;;23.92;15.27;;;;;;;10.25;100.00;98676.28;5099220;28;20081;-73
2022/11/18 10:24:24;;;;;;;;;;;;;;;10.25;100.00;98684.31;5101325;28;20494;-73
2022/11/18 10:26:55;;;;;;;24.60;14.57;;;;;;;10.24;100.00;98676.47;5104137;28;19916;-74
2022/11/18 10:29:22;;;;;;;23.90;15.70;;;;;;;10.28;100.00;98681.31;5106038;28;20023;-74
2022/11/18 10:32:06;;;;;;;24.83;15.18;;;;;;;10.27;100.00;98671.59;5104424;28;20058;-73
2022/11/18 10:34:34;;;;;;;25.20;15.93;;;;;;;10.32;100.00;98673.78;5098127;28;20487;-66
2022/11/18 10:37:06;;;;;;;26.65;15.90;;;;;;;10.32;100.00;98655.00;5094433;28;20750;-66
2022/11/18 10:39:32;;;;;;;23.45;14.82;;;;;;;10.31;100.00;98656.00;5093355;28;20028;-68
2022/11/18 10:42:06;;;;;;;26.38;15.88;;;;;;;10.30;100.00;98646.31;5101406;28;20038;-67
2022/11/18 10:44:39;;;;;;;27.02;16.13;;;;;;;10.33;100.00;98646.81;5093669;28;20028;-67
2022/11/18 10:47:25;;;;;;;26.70;16.25;;;;;;;10.37;100.00;98645.44;5093692;28;20483;-67
2022/11/18 10:49:52;;;;;;;26.95;16.77;;;;;;;10.43;100.00;98636.72;5100637;28;20056;-67
2022/11/18 10:52:18;;;;;;;29.08;17.92;;;;;;;10.36;100.00;98619.66;5095487;28;20028;-67
2022/11/18 10:54:44;;;;;;;27.25;16.77;;;;;;;10.43;100.00;98622.47;5089466;28;20034;-67
2022/11/18 10:57:10;;;;;;;26.10;17.00;;;;;;;10.44;100.00;98622.28;5093218;28;20032;-66
2022/11/18 10:59:39;;;;;;;25.42;16.30;;;;;;;10.47;100.00;98624.63;5097373;28;20050;-67
2022/11/18 11:02:16;;;;;;;27.23;15.70;;;;;;;10.45;100.00;98626.63;5105179;28;20039;-67
2022/11/18 11:04:43;;;;;;;23.67;15.02;;;;;;;10.46;100.00;98611.41;5101873;28;20068;-67
2022/11/18 11:07:32;;;;;;;25.88;16.25;;;;;;;10.47;100.00;98613.06;5089488;28;20604;-67
2022/11/18 11:10:03;;;;;;;23.27;14.93;;;;;;;10.47;100.00;98621.94;5096949;28;20391;-66
2022/11/18 11:12:45;;;;;;;26.92;17.33;;;;;;;10.49;100.00;98621.78;5091052;28;20034;-66
2022/11/18 11:15:17;;;;;;;23.85;16.27;;;;;;;10.49;100.00;98622.63;5098222;28;20051;-66
2022/11/18 11:20:44;;;;;;;25.90;15.82;;;;;;;10.46;100.00;98617.59;5111343;28;20046;-74
2022/11/18 11:23:14;;;;;;;25.73;16.17;;;;;;;10.48;100.00;98615.56;5106193;28;20016;-74
2022/11/18 11:25:58;;;;;;;26.10;16.85;;;;;;;10.44;100.00;98610.72;5103846;28;20030;-73
2022/11/18 11:28:30;;;;;;;25.27;16.48;;;;;;;10.51;100.00;98617.06;5102492;28;20031;-74
2022/11/18 11:30:58;;;;;;;26.33;17.27;;;;;;;10.50;100.00;98608.19;5102408;28;20051;-74
2022/11/18 11:33:39;;;;;;;26.48;16.65;;;;;;;10.49;100.00;98601.19;5099503;28;20031;-74
2022/11/18 11:36:23;;;;;;;25.98;16.23;;;;;;;10.49;100.00;98590.44;5094641;28;20101;-74
2022/11/18 11:39:03;;;;;;;28.23;17.70;;;;;;;10.49;100.00;98595.81;5099601;28;20027;-73
2022/11/18 11:41:34;;;;;;;31.95;18.55;;;;;;;10.52;100.00;98582.06;5099619;28;20058;-73
2022/11/18 11:44:21;;;;;;;28.00;18.17;;;;;;;10.51;100.00;98588.41;5096042;28;20521;-74